WetterOnline ( http://www.wetteronline.de )

Wetter aktuell Wahrenbrück

Aktuelles Wetter: Kirchhain (100m)

6-stündlich | Neueste Meldungen
Ortszeit Temperatur Wetter
Sa, 17.11. 19:00 1.1° C bewölkt
Sa, 17.11. 13:00 5.9° C wolkenlos
Sa, 17.11. 7:00 -0.1° C fast wolkenlos
Sa, 17.11. 1:00 1.9° C wolkenlos
Fr, 16.11. 19:00 2.4° C wolkenlos
Fr, 16.11. 13:00 8.8° C wolkenlos
Fr, 16.11. 7:00 1.7° C wolkenlos
Fr, 16.11. 1:00 3.4° C wolkig
Ortszeit Temperatur Wetter
Sa, 17.11. 23:00 -1.6° C leicht bewölkt
Sa, 17.11. 22:50 -1.6° C leicht bewölkt
Sa, 17.11. 22:40 -1.7° C wolkenlos
Sa, 17.11. 22:30 -2.0° C wolkenlos
Sa, 17.11. 22:20 -2.0° C wolkenlos
Sa, 17.11. 22:10 -2.3° C fast wolkenlos
Sa, 17.11. 22:00 -2.5° C leicht bewölkt
Sa, 17.11. 21:30 -1.6° C wolkenlos
Sa, 17.11. 21:00 -0.7° C wolkig
Sa, 17.11. 20:30 -0.3° C bewölkt
Sa, 17.11. 20:00 0.3° C bedeckt
Ortszeit Relative Feuchte Sichtweite
Sa, 17.11. 19:00 78% 8 km
Sa, 17.11. 13:00 64% 22 km
Sa, 17.11. 7:00 95% 4.4 km
Sa, 17.11. 1:00 90% 12 km
Fr, 16.11. 19:00 87% 26 km
Fr, 16.11. 13:00 63% 23 km
Fr, 16.11. 7:00 95% 5.0 km
Fr, 16.11. 1:00 94% 8 km
Ortszeit Relative Feuchte Sichtweite
Sa, 17.11. 23:00 87% 5.0 km
Sa, 17.11. 22:50 87% -
Sa, 17.11. 22:40 87% -
Sa, 17.11. 22:30 91% 4.7 km
Sa, 17.11. 22:20 91% -
Sa, 17.11. 22:10 92% -
Sa, 17.11. 22:00 91% 4.5 km
Sa, 17.11. 21:30 89% 5.0 km
Sa, 17.11. 21:00 86% 6 km
Sa, 17.11. 20:30 85% 4.9 km
Sa, 17.11. 20:00 83% 6 km
Ortszeit Niederschlagsmenge Niederschlagsart
Sa, 17.11. 19:00 0.0 l/m2 in 12 Std. -
Sa, 17.11. 13:00 0.0 l/m2 in 6 Std. -
Sa, 17.11. 7:00 0.0 l/m2 in 12 Std. -
Sa, 17.11. 1:00 0.0 l/m2 in 6 Std. -
Fr, 16.11. 19:00 0.0 l/m2 in 12 Std. -
Fr, 16.11. 13:00 0.0 l/m2 in 6 Std. -
Fr, 16.11. 7:00 0.0 l/m2 in 12 Std. -
Fr, 16.11. 1:00 0.0 l/m2 in 6 Std. -
Ortszeit Niederschlagsmenge Niederschlagsart
Sa, 17.11. 23:00 0.0 l/m2 in 1 Std. -
Sa, 17.11. 22:50 keine Meldung -
Sa, 17.11. 22:40 keine Meldung -
Sa, 17.11. 22:30 0.0 l/m2 in 1 Std. -
Sa, 17.11. 22:20 keine Meldung -
Sa, 17.11. 22:10 keine Meldung -
Sa, 17.11. 22:00 0.0 l/m2 in 1 Std. -
Sa, 17.11. 21:30 0.0 l/m2 in 1 Std. -
Sa, 17.11. 21:00 0.0 l/m2 in 1 Std. -
Sa, 17.11. 20:30 0.0 l/m2 in 1 Std. -
Sa, 17.11. 20:00 0.0 l/m2 in 1 Std. -
Ortszeit Stärke Spitze Richtung
km/h Bft. km/h Grad Sektor
Sa, 17.11. 19:00 11 2 29 60° NO
Sa, 17.11. 13:00 15 3 30 80° O
Sa, 17.11. 7:00 9 2 20 70° O
Sa, 17.11. 1:00 11 2 18 90° O
Fr, 16.11. 19:00 7 2 32 70° O
Fr, 16.11. 13:00 13 3 30 100° O
Fr, 16.11. 7:00 7 2 19 110° O
Fr, 16.11. 1:00 7 2 25 100° O
Ortszeit Stärke Spitze Richtung
km/h Bft. km/h Grad Sektor
Sa, 17.11. 23:00 11 2 18 80° O
Sa, 17.11. 22:50 11 2 - 80° O
Sa, 17.11. 22:40 11 2 - 80° O
Sa, 17.11. 22:30 7 2 15 70° O
Sa, 17.11. 22:20 7 2 - 70° O
Sa, 17.11. 22:10 7 2 - 70° O
Sa, 17.11. 22:00 7 2 14 90° O
Sa, 17.11. 21:30 7 2 14 80° O
Sa, 17.11. 21:00 11 2 19 70° O
Sa, 17.11. 20:30 11 2 18 70° O
Sa, 17.11. 20:00 11 2 25 60° NO
Ortszeit Untergrenze Bedeckung Gattung
total tief tief mittel hoch
Sa, 17.11. 19:00 6600 m 8/8 5/8 - - -
Sa, 17.11. 13:00 - 0/8 0/8 - - -
Sa, 17.11. 7:00 9000 m 2/8 0/8 - - -
Sa, 17.11. 1:00 - 0/8 0/8 - - -
Fr, 16.11. 19:00 - 0/8 0/8 - - -
Fr, 16.11. 13:00 - 0/8 0/8 - - -
Fr, 16.11. 7:00 - 0/8 0/8 - - -
Fr, 16.11. 1:00 10500 m 8/8 0/8 - - -
Ortszeit Bedeckungsgrad in Achtel und Wolkenuntergrenze
Sa, 17.11. 23:00 1(2400m) 3(5700m)
Sa, 17.11. 22:50 1(2400m) 3(5700m)
Sa, 17.11. 22:40 keine Wolken
Sa, 17.11. 22:30 keine Wolken
Sa, 17.11. 22:20 keine Wolken
Sa, 17.11. 22:10 1(2400m)
Sa, 17.11. 22:00 1(2400m) 1(6900m)
Sa, 17.11. 21:30 keine Wolken
Sa, 17.11. 21:00 1(2100m) 7(6000m)
Sa, 17.11. 20:30 7(6000m)
Sa, 17.11. 20:00 7(6000m) 8(6900m) 8(7800m)
Ortszeit Luftdruck NN (hPa) Tendenz (hPa in 3 Std.)
Sa, 17.11. 19:00 1037 0,0
Sa, 17.11. 13:00 1037 - 0,4
Sa, 17.11. 7:00 1037 - 0,3
Sa, 17.11. 1:00 1036 + 0,7
Fr, 16.11. 19:00 1035 + 0,7
Fr, 16.11. 13:00 1034 - 0,6
Fr, 16.11. 7:00 1034 + 0,5
Fr, 16.11. 1:00 1032 + 0,9
Ortszeit Luftdruck NN (hPa) Tendenz (hPa in 3 Std.)
Sa, 17.11. 23:00 1037 - 0,6
Sa, 17.11. 22:50 1037 keine Meldung
Sa, 17.11. 22:40 1037 keine Meldung
Sa, 17.11. 22:30 1037 - 0,3
Sa, 17.11. 22:20 1037 keine Meldung
Sa, 17.11. 22:10 1037 keine Meldung
Sa, 17.11. 22:00 1037 - 0,3
Sa, 17.11. 21:30 1037 + 0,1
Sa, 17.11. 21:00 1037 + 0,6
Sa, 17.11. 20:30 1037 + 0,6
Sa, 17.11. 20:00 1037 + 0,3
Ortszeit Schneehöhe (cm)
Sa, 17.11. 19:00 0
Sa, 17.11. 13:00 0
Sa, 17.11. 7:00 0
Sa, 17.11. 1:00 0
Fr, 16.11. 19:00 0
Fr, 16.11. 13:00 0
Fr, 16.11. 7:00 0
Fr, 16.11. 1:00 0
Ortszeit Schneehöhe (cm)
Sa, 17.11. 23:00 0
Sa, 17.11. 22:50 0
Sa, 17.11. 22:40 -
Sa, 17.11. 22:30 0
Sa, 17.11. 22:20 0
Sa, 17.11. 22:10 0
Sa, 17.11. 22:00 0
Sa, 17.11. 21:30 0
Sa, 17.11. 21:00 0
Sa, 17.11. 20:30 0
Sa, 17.11. 20:00 0
Link zu dieser Seite / Seite empfehlen

Das Wetter in ...